Time;durP1;ratioP1;P1;durP2;ratioP2;P2;SDS_P1;SDS_P2;PMS_P1;PMS_P2;Temp;Humidity;BMP_temperature;BMP_pressure;BME280_temperature;BME280_humidity;BME280_pressure;Samples;Min_cycle;Max_cycle;Signal;HPM_P1;HPM_P2
2023/01/18 00:00:03;;;;;;;20.33;9.97;;;-0.50;99.90;;;;;;5028505;28;20442;-70
2023/01/18 00:02:30;;;;;;;18.40;10.13;;;-0.50;99.90;;;;;;5028850;28;20454;-68
2023/01/18 00:04:56;;;;;;;22.60;9.90;;;-0.50;99.90;;;;;;5028370;28;21161;-68
2023/01/18 00:07:24;;;;;;;22.20;10.37;;;-0.50;99.90;;;;;;5028443;28;20458;-68
2023/01/18 00:09:51;;;;;;;23.50;10.63;;;-0.50;99.90;;;;;;5022110;28;20484;-68
2023/01/18 00:12:18;;;;;;;14.20;9.80;;;-0.50;99.90;;;;;;5023424;28;20560;-70
2023/01/18 00:14:45;;;;;;;17.70;9.80;;;-0.50;99.90;;;;;;5013427;28;20451;-68
2023/01/18 00:17:11;;;;;;;17.80;9.60;;;-0.50;99.90;;;;;;5013504;28;20501;-68
2023/01/18 00:19:38;;;;;;;18.43;9.70;;;-0.50;99.90;;;;;;5019391;28;20957;-68
2023/01/18 00:22:04;;;;;;;17.40;9.43;;;-0.50;99.90;;;;;;5013246;28;20467;-68
2023/01/18 00:24:32;;;;;;;14.83;8.90;;;-0.50;99.90;;;;;;5017422;28;20458;-68
2023/01/18 00:26:59;;;;;;;14.70;8.90;;;-0.50;99.90;;;;;;5012932;28;20466;-68
2023/01/18 00:29:26;;;;;;;14.73;8.93;;;-0.50;99.90;;;;;;5013714;28;20458;-68
2023/01/18 00:31:52;;;;;;;18.20;9.10;;;-0.50;99.90;;;;;;5013140;28;20490;-68
2023/01/18 00:34:19;;;;;;;13.93;8.83;;;-0.50;99.90;;;;;;5017650;28;20461;-68
2023/01/18 00:36:48;;;;;;;13.80;8.70;;;-0.60;99.90;;;;;;5012662;28;20450;-68
2023/01/18 00:39:15;;;;;;;21.80;9.30;;;-0.60;99.90;;;;;;5020260;28;20449;-68
2023/01/18 00:43:37;;;;;;;15.17;8.80;;;-0.60;99.90;;;;;;5019528;28;20471;-68
2023/01/18 00:44:29;;;;;;;19.97;9.20;;;-0.60;99.90;;;;;;5012441;28;20450;-68
2023/01/18 00:46:55;;;;;;;14.10;8.80;;;-0.60;99.90;;;;;;5022852;28;20446;-68
2023/01/18 00:49:23;;;;;;;17.97;9.30;;;-0.60;99.90;;;;;;5017134;28;20694;-68
2023/01/18 00:51:51;;;;;;;19.53;8.23;;;-0.60;99.90;;;;;;5021909;28;20516;-68
2023/01/18 00:54:17;;;;;;;14.03;8.60;;;-0.60;99.90;;;;;;5012637;28;20513;-68
2023/01/18 00:56:45;;;;;;;13.73;7.20;;;-0.60;99.90;;;;;;5012315;28;20805;-68
2023/01/18 00:59:12;;;;;;;19.17;8.30;;;-0.60;99.90;;;;;;5012669;28;20500;-68
2023/01/18 01:01:38;;;;;;;15.03;8.43;;;-0.60;99.90;;;;;;5026768;28;20812;-68
2023/01/18 01:06:50;;;;;;;20.90;9.20;;;-0.60;99.90;;;;;;5015615;28;20874;-68
2023/01/18 01:09:19;;;;;;;13.93;8.90;;;-0.60;99.90;;;;;;5012450;28;20450;-68
2023/01/18 01:28:16;;;;;;;12.63;7.83;;;-0.70;99.90;;;;;;5014530;28;20500;-67
2023/01/18 01:30:44;;;;;;;12.63;8.13;;;-0.70;99.90;;;;;;5014346;28;20490;-67
2023/01/18 01:33:10;;;;;;;20.23;7.87;;;-0.60;99.90;;;;;;5017762;28;20447;-68
2023/01/18 01:35:37;;;;;;;11.87;7.30;;;-0.70;99.90;;;;;;5011594;28;20466;-68
2023/01/18 01:38:04;;;;;;;14.70;8.20;;;-0.70;99.90;;;;;;5019495;28;21017;-68
2023/01/18 01:40:30;;;;;;;19.73;7.53;;;-0.70;99.90;;;;;;5011660;28;20517;-68
2023/01/18 01:42:57;;;;;;;14.77;7.50;;;-0.70;99.90;;;;;;5020062;28;20458;-68
2023/01/18 01:45:28;;;;;;;11.20;8.07;;;-0.70;99.90;;;;;;5016289;28;20459;-68
2023/01/18 01:47:56;;;;;;;23.33;6.70;;;-0.70;99.90;;;;;;5011370;28;20454;-68
2023/01/18 01:50:27;;;;;;;10.20;6.60;;;-0.70;99.90;;;;;;5011421;28;20536;-68
2023/01/18 01:52:56;;;;;;;11.73;6.70;;;-0.70;99.90;;;;;;5016313;28;20462;-68
2023/01/18 01:55:26;;;;;;;9.93;6.70;;;-0.70;99.90;;;;;;5024914;28;20512;-68
2023/01/18 01:57:56;;;;;;;12.63;7.37;;;-0.70;99.90;;;;;;5014526;28;20505;-68
2023/01/18 02:00:25;;;;;;;11.47;6.43;;;-0.70;99.90;;;;;;5019525;28;20529;-68
2023/01/18 02:02:56;;;;;;;19.50;7.43;;;-0.70;99.90;;;;;;5015059;28;20476;-68
2023/01/18 02:05:23;;;;;;;12.80;8.13;;;-0.70;99.90;;;;;;5023465;28;20457;-68
2023/01/18 02:07:50;;;;;;;15.17;7.23;;;-0.70;99.90;;;;;;5012581;28;20501;-68
2023/01/18 02:10:17;;;;;;;13.57;6.60;;;-0.70;99.90;;;;;;5011295;28;20443;-68
2023/01/18 02:12:47;;;;;;;14.20;6.67;;;-0.70;99.90;;;;;;5016315;28;20480;-68
2023/01/18 02:15:13;;;;;;;11.13;6.80;;;-0.70;99.90;;;;;;5011554;28;20461;-68
2023/01/18 02:18:01;;;;;;;13.63;7.30;;;-0.70;99.90;;;;;;5011462;28;20801;-68
2023/01/18 02:20:55;;;;;;;10.43;5.20;;;-0.70;99.90;;;;;;5013704;28;20548;-68
2023/01/18 02:23:41;;;;;;;11.10;5.93;;;-0.70;99.90;;;;;;5017693;28;20453;-67
2023/01/18 02:26:48;;;;;;;9.67;6.30;;;-0.70;99.90;;;;;;5019452;28;20517;-67
2023/01/18 02:29:17;;;;;;;8.87;5.50;;;-0.70;99.90;;;;;;5018414;28;20993;-67
2023/01/18 02:32:07;;;;;;;9.90;5.87;;;-0.70;99.90;;;;;;5011266;28;20521;-67
2023/01/18 02:34:39;;;;;;;8.30;5.03;;;-0.70;99.90;;;;;;5011283;28;20451;-67
2023/01/18 02:37:13;;;;;;;15.17;5.40;;;-0.70;99.90;;;;;;5013032;28;20478;-67
2023/01/18 02:39:51;;;;;;;11.00;5.80;;;-0.70;99.90;;;;;;5013507;28;20516;-67
2023/01/18 02:48:01;;;;;;;14.73;5.80;;;-0.70;99.90;;;;;;5021597;28;20445;-67
2023/01/18 02:50:28;;;;;;;12.03;5.83;;;-0.70;99.90;;;;;;5011424;28;20533;-67
2023/01/18 02:52:55;;;;;;;13.00;5.53;;;-0.70;99.90;;;;;;5013721;28;20874;-68
2023/01/18 02:55:31;;;;;;;14.93;6.10;;;-0.70;99.90;;;;;;5011165;28;20510;-68
2023/01/18 02:58:04;;;;;;;9.43;6.20;;;-0.70;99.90;;;;;;5015165;28;20520;-68
2023/01/18 03:00:34;;;;;;;8.87;5.60;;;-0.80;99.90;;;;;;5016757;28;20486;-68
2023/01/18 03:03:02;;;;;;;10.83;5.87;;;-0.80;99.90;;;;;;5012159;28;20926;-68
2023/01/18 03:05:31;;;;;;;16.07;5.90;;;-0.80;99.90;;;;;;5016692;28;20466;-68
2023/01/18 03:08:05;;;;;;;8.20;5.47;;;-0.80;99.90;;;;;;5022523;28;20459;-68
2023/01/18 03:10:35;;;;;;;10.97;5.90;;;-0.90;99.90;;;;;;5014644;28;20871;-68
2023/01/18 03:13:08;;;;;;;8.30;5.63;;;-0.80;99.90;;;;;;5017568;28;20459;-68
2023/01/18 03:15:45;;;;;;;9.33;5.20;;;-0.80;99.90;;;;;;5018442;28;20465;-68
2023/01/18 03:18:19;;;;;;;9.97;5.40;;;-0.80;99.90;;;;;;5014519;28;20933;-68
2023/01/18 03:20:51;;;;;;;10.93;5.63;;;-0.80;99.90;;;;;;5013467;28;20525;-68
2023/01/18 03:23:39;;;;;;;11.97;5.57;;;-0.90;99.90;;;;;;5015745;28;20483;-68
2023/01/18 03:26:08;;;;;;;7.70;5.27;;;-0.80;99.90;;;;;;5014351;28;20825;-68
2023/01/18 03:34:21;;;;;;;7.60;5.30;;;-0.80;99.90;;;;;;5022270;28;20493;-68
2023/01/18 03:36:51;;;;;;;11.10;5.30;;;-0.80;99.90;;;;;;5013928;28;20504;-68
2023/01/18 03:39:23;;;;;;;13.90;5.20;;;-0.80;99.90;;;;;;5014043;28;20447;-68
2023/01/18 03:41:54;;;;;;;9.03;5.47;;;-0.80;99.90;;;;;;5024406;28;20853;-68
2023/01/18 03:44:26;;;;;;;8.60;5.20;;;-0.80;99.90;;;;;;5015184;28;20454;-68
2023/01/18 03:46:55;;;;;;;10.33;4.93;;;-0.80;99.90;;;;;;5015266;28;20973;-68
2023/01/18 03:49:22;;;;;;;9.30;5.33;;;-0.80;99.90;;;;;;5019558;28;20798;-68
2023/01/18 03:51:59;;;;;;;9.80;5.10;;;-0.80;99.90;;;;;;5013453;28;20983;-68
2023/01/18 03:54:33;;;;;;;5.63;4.60;;;-0.80;99.90;;;;;;5014199;28;20459;-68
2023/01/18 03:57:04;;;;;;;8.73;4.80;;;-0.80;99.90;;;;;;5021723;28;21998;-68
2023/01/18 03:59:35;;;;;;;13.37;5.40;;;-0.80;99.90;;;;;;5018216;28;20462;-68
2023/01/18 04:02:03;;;;;;;7.97;5.10;;;-0.80;99.90;;;;;;5020633;28;20475;-68
2023/01/18 04:04:30;;;;;;;8.37;4.73;;;-0.80;99.90;;;;;;5013125;28;20796;-68
2023/01/18 04:06:57;;;;;;;8.17;4.90;;;-0.80;99.90;;;;;;5013447;28;20462;-68
2023/01/18 04:09:24;;;;;;;12.13;5.27;;;-0.80;99.90;;;;;;5016680;28;20455;-68
2023/01/18 04:11:51;;;;;;;9.50;5.20;;;-0.80;99.90;;;;;;5015425;28;20490;-68
2023/01/18 04:14:17;;;;;;;15.47;5.80;;;-0.80;99.90;;;;;;5012356;28;20454;-68
2023/01/18 04:16:44;;;;;;;18.83;5.50;;;-0.80;99.90;;;;;;5013079;28;20923;-67
2023/01/18 04:19:12;;;;;;;13.43;5.20;;;-0.80;99.90;;;;;;5015651;28;20467;-68
2023/01/18 04:21:38;;;;;;;8.43;5.30;;;-0.90;99.90;;;;;;5018267;28;20520;-68
2023/01/18 04:24:05;;;;;;;7.43;4.83;;;-0.80;99.90;;;;;;5018065;28;20530;-68
2023/01/18 04:26:33;;;;;;;9.20;5.07;;;-0.80;99.90;;;;;;5013173;28;20461;-68
2023/01/18 04:28:59;;;;;;;11.20;5.87;;;-0.80;99.90;;;;;;5014906;28;20450;-68
2023/01/18 04:31:26;;;;;;;11.63;5.43;;;-0.80;99.90;;;;;;5013010;28;20998;-68
2023/01/18 04:33:52;;;;;;;12.67;5.10;;;-0.80;99.90;;;;;;5020340;28;20512;-68
2023/01/18 04:36:21;;;;;;;6.50;4.30;;;-0.80;99.90;;;;;;5020596;28;20509;-68
2023/01/18 04:38:51;;;;;;;11.27;6.73;;;-0.80;99.90;;;;;;5019228;28;20463;-68
2023/01/18 04:41:18;;;;;;;12.40;4.53;;;-0.80;99.90;;;;;;5013035;28;20525;-68
2023/01/18 04:43:45;;;;;;;7.13;5.93;;;-0.90;99.90;;;;;;5020153;28;20463;-68
2023/01/18 04:46:11;;;;;;;6.20;4.33;;;-0.90;99.90;;;;;;5012662;28;20938;-68
2023/01/18 04:48:38;;;;;;;5.23;4.20;;;-0.90;99.90;;;;;;5012647;28;20454;-68
2023/01/18 04:51:05;;;;;;;7.70;4.30;;;-0.90;99.90;;;;;;5016963;28;20879;-68
2023/01/18 04:53:35;;;;;;;12.97;5.03;;;-0.90;99.90;;;;;;5012585;28;20516;-68
2023/01/18 04:56:01;;;;;;;7.93;3.87;;;-0.80;99.90;;;;;;5012317;28;20451;-68
2023/01/18 04:58:28;;;;;;;8.87;4.30;;;-0.80;99.90;;;;;;5020324;28;20962;-68
2023/01/18 05:00:54;;;;;;;11.53;4.57;;;-0.80;99.90;;;;;;5012450;28;20478;-68
2023/01/18 05:03:21;;;;;;;5.90;3.97;;;-0.80;99.90;;;;;;5012448;28;20451;-68
2023/01/18 05:05:48;;;;;;;9.17;4.53;;;-0.80;99.90;;;;;;5022627;28;20454;-68
2023/01/18 05:08:14;;;;;;;6.70;4.17;;;-0.80;99.90;;;;;;5012236;28;20451;-68
2023/01/18 05:10:42;;;;;;;6.70;4.30;;;-0.70;99.90;;;;;;5019943;28;20580;-68
2023/01/18 05:13:09;;;;;;;9.80;4.63;;;-0.70;99.90;;;;;;5012165;28;21092;-68
2023/01/18 05:15:35;;;;;;;7.00;3.63;;;-0.80;99.90;;;;;;5012224;28;20450;-68
2023/01/18 05:18:02;;;;;;;6.87;4.20;;;-0.80;99.90;;;;;;5018865;28;20454;-68
2023/01/18 05:20:29;;;;;;;10.13;4.43;;;-0.80;99.90;;;;;;5016999;28;20577;-68
2023/01/18 05:22:55;;;;;;;8.90;4.10;;;-0.80;99.90;;;;;;5011962;28;20504;-68
2023/01/18 05:25:22;;;;;;;5.13;3.70;;;-0.80;99.90;;;;;;5011883;28;20958;-68
2023/01/18 05:27:50;;;;;;;6.43;4.67;;;-0.80;99.90;;;;;;5016840;28;20524;-68
2023/01/18 05:30:17;;;;;;;14.50;4.20;;;-0.80;99.90;;;;;;5014307;28;20939;-68
2023/01/18 05:32:44;;;;;;;6.90;4.10;;;-0.90;99.90;;;;;;5019649;28;20493;-68
2023/01/18 05:35:10;;;;;;;7.30;4.17;;;-0.90;99.90;;;;;;5011684;28;20447;-68
2023/01/18 05:37:37;;;;;;;6.03;4.37;;;-0.90;99.90;;;;;;5018493;28;20466;-68
2023/01/18 05:40:04;;;;;;;6.37;4.70;;;-0.90;99.90;;;;;;5011792;28;20450;-68
2023/01/18 05:42:31;;;;;;;5.03;3.90;;;-0.90;99.90;;;;;;5017254;28;20459;-68
2023/01/18 05:44:59;;;;;;;7.20;4.10;;;-0.90;99.90;;;;;;5018312;28;20499;-68
2023/01/18 05:47:26;;;;;;;6.03;4.23;;;-1.00;99.90;;;;;;5023328;28;20561;-68
2023/01/18 05:49:52;;;;;;;9.63;4.20;;;-1.00;99.90;;;;;;5021102;28;20519;-67
2023/01/18 05:52:19;;;;;;;6.60;4.40;;;-1.00;99.90;;;;;;5017139;28;21080;-68
2023/01/18 05:54:46;;;;;;;9.23;3.90;;;-1.00;99.90;;;;;;5020504;28;20508;-68
2023/01/18 05:57:13;;;;;;;8.13;5.10;;;-0.90;99.90;;;;;;5019173;28;20522;-68
2023/01/18 05:59:39;;;;;;;14.77;4.37;;;-1.00;99.90;;;;;;5016211;28;20519;-67
2023/01/18 06:02:07;;;;;;;9.20;5.00;;;-0.90;99.90;;;;;;5028541;28;20989;-68
2023/01/18 06:04:34;;;;;;;7.67;4.17;;;-0.90;99.90;;;;;;5016309;28;20450;-68
2023/01/18 06:07:01;;;;;;;4.43;3.87;;;-0.90;99.90;;;;;;5013984;28;20449;-68
2023/01/18 06:09:28;;;;;;;9.10;4.07;;;-1.00;99.90;;;;;;5011619;28;20508;-68
2023/01/18 06:11:55;;;;;;;5.73;4.37;;;-1.00;99.90;;;;;;5022966;28;20973;-70
2023/01/18 06:14:22;;;;;;;10.17;4.67;;;-1.00;99.90;;;;;;5030001;28;20969;-68
2023/01/18 06:16:48;;;;;;;6.97;4.40;;;-0.90;99.90;;;;;;5018110;28;20457;-67
2023/01/18 06:19:16;;;;;;;9.07;4.40;;;-0.90;99.90;;;;;;5018508;28;20828;-68
2023/01/18 06:21:43;;;;;;;5.80;4.10;;;-0.90;99.90;;;;;;5018339;28;20568;-68
2023/01/18 06:24:10;;;;;;;8.57;4.20;;;-0.90;99.90;;;;;;5026095;28;20458;-68
2023/01/18 06:26:37;;;;;;;9.27;4.40;;;-0.90;99.90;;;;;;5013161;28;20512;-68
2023/01/18 06:29:03;;;;;;;11.87;4.60;;;-0.90;99.90;;;;;;5015062;28;20926;-68
2023/01/18 06:31:31;;;;;;;13.43;4.73;;;-0.90;99.90;;;;;;5018915;28;20478;-68
2023/01/18 06:33:57;;;;;;;7.70;4.80;;;-0.90;99.90;;;;;;5018495;28;20560;-68
2023/01/18 06:36:26;;;;;;;9.90;4.33;;;-0.80;99.90;;;;;;5016558;28;20496;-68
2023/01/18 06:38:53;;;;;;;8.03;4.90;;;-0.90;99.90;;;;;;5016770;28;20464;-68
2023/01/18 06:41:20;;;;;;;12.53;5.70;;;-0.90;99.90;;;;;;5023659;28;20477;-68
2023/01/18 06:43:46;;;;;;;8.43;4.67;;;-0.80;99.90;;;;;;5020702;28;20497;-66
2023/01/18 06:46:13;;;;;;;11.83;5.67;;;-0.80;99.90;;;;;;5022533;28;20486;-69
2023/01/18 06:48:39;;;;;;;6.87;4.50;;;-0.80;99.90;;;;;;5024015;28;20454;-69
2023/01/18 06:51:07;;;;;;;9.17;5.23;;;-0.80;99.90;;;;;;5017232;28;21192;-67
2023/01/18 06:53:35;;;;;;;8.47;5.00;;;-0.80;99.90;;;;;;5014199;28;20526;-68
2023/01/18 06:56:01;;;;;;;7.93;4.87;;;-0.80;99.90;;;;;;5017495;28;20463;-68
2023/01/18 06:58:29;;;;;;;8.67;5.30;;;-0.80;99.90;;;;;;5014532;28;20454;-68
2023/01/18 07:00:57;;;;;;;8.57;4.33;;;-0.80;99.90;;;;;;5014558;28;20474;-68
2023/01/18 07:03:24;;;;;;;12.53;4.70;;;-0.80;99.90;;;;;;5031827;28;20540;-69
2023/01/18 07:05:52;;;;;;;9.53;5.57;;;-0.80;99.90;;;;;;5024720;28;20470;-68
2023/01/18 07:08:20;;;;;;;17.80;6.60;;;-0.70;99.90;;;;;;5029655;28;20450;-68
2023/01/18 07:10:48;;;;;;;10.20;5.70;;;-0.70;99.90;;;;;;5019240;28;20474;-68
2023/01/18 07:13:14;;;;;;;10.60;5.33;;;-0.70;99.90;;;;;;5029298;28;21055;-68
2023/01/18 07:15:41;;;;;;;11.33;5.90;;;-0.70;99.90;;;;;;5017173;28;20531;-68
2023/01/18 07:18:08;;;;;;;9.87;5.93;;;-0.70;99.90;;;;;;5021357;28;20486;-68
2023/01/18 07:20:34;;;;;;;7.13;5.47;;;-0.70;99.90;;;;;;5026139;28;20489;-68
2023/01/18 07:23:03;;;;;;;11.27;5.67;;;-0.70;99.90;;;;;;5022502;28;20942;-68
2023/01/18 07:25:29;;;;;;;9.10;5.80;;;-0.60;99.90;;;;;;5030620;28;20876;-68
2023/01/18 07:27:58;;;;;;;14.23;5.30;;;-0.60;99.90;;;;;;5019377;28;21029;-68
2023/01/18 07:30:24;;;;;;;7.43;5.20;;;-0.60;99.90;;;;;;5028785;28;20479;-67
2023/01/18 07:32:52;;;;;;;7.43;5.40;;;-0.60;99.90;;;;;;5029959;28;21000;-67
2023/01/18 07:35:21;;;;;;;8.93;5.20;;;-0.60;99.90;;;;;;5018271;28;20454;-68
2023/01/18 07:37:49;;;;;;;9.90;5.83;;;-0.50;99.90;;;;;;5014609;28;20478;-68
2023/01/18 07:40:16;;;;;;;11.97;5.60;;;-0.50;99.90;;;;;;5026995;28;20813;-68
2023/01/18 07:42:43;;;;;;;8.20;5.37;;;-0.50;99.90;;;;;;5024981;28;20446;-67
2023/01/18 07:45:12;;;;;;;17.63;4.93;;;-0.50;99.90;;;;;;5025217;28;20462;-67
2023/01/18 07:47:39;;;;;;;9.50;5.27;;;-0.50;99.90;;;;;;5029146;28;20465;-68
2023/01/18 07:50:06;;;;;;;15.70;6.03;;;-0.40;99.90;;;;;;5026202;28;20835;-69
2023/01/18 07:52:33;;;;;;;17.13;5.67;;;-0.40;99.90;;;;;;5032643;28;20481;-69
2023/01/18 07:55:00;;;;;;;8.13;5.00;;;-0.30;99.90;;;;;;5019921;28;20500;-69
2023/01/18 07:57:27;;;;;;;13.43;4.90;;;-0.30;99.90;;;;;;5020442;28;20454;-69
2023/01/18 07:59:54;;;;;;;14.63;5.13;;;-0.40;99.90;;;;;;5024546;28;20512;-69
2023/01/18 08:02:22;;;;;;;20.23;6.43;;;-0.30;99.90;;;;;;5016408;28;20478;-69
2023/01/18 08:04:49;;;;;;;9.73;4.80;;;-0.30;99.90;;;;;;5021116;28;20962;-67
2023/01/18 08:07:16;;;;;;;11.97;5.77;;;-0.30;99.90;;;;;;5024546;28;21006;-70
2023/01/18 08:09:43;;;;;;;10.17;5.33;;;-0.30;99.90;;;;;;5026840;28;20460;-68
2023/01/18 08:12:12;;;;;;;30.10;6.13;;;-0.30;99.90;;;;;;5026825;28;20478;-68
2023/01/18 08:14:39;;;;;;;10.10;5.40;;;-0.30;99.90;;;;;;5029090;28;20843;-68
2023/01/18 08:17:06;;;;;;;12.27;5.50;;;-0.20;99.90;;;;;;5027058;28;20512;-68
2023/01/18 08:19:34;;;;;;;14.20;5.20;;;-0.20;99.90;;;;;;5028138;28;20464;-68
2023/01/18 08:22:01;;;;;;;9.77;5.73;;;-0.20;99.90;;;;;;5027515;28;20543;-68
2023/01/18 08:24:28;;;;;;;11.60;5.73;;;-0.20;99.90;;;;;;5027468;28;20485;-67
2023/01/18 08:26:55;;;;;;;14.53;5.37;;;-0.10;99.90;;;;;;5028138;28;20450;-68
2023/01/18 08:29:21;;;;;;;9.57;5.13;;;-0.10;99.90;;;;;;5028828;28;20442;-67
2023/01/18 08:31:51;;;;;;;13.50;6.03;;;-0.10;99.90;;;;;;5027217;28;20473;-69
2023/01/18 08:34:17;;;;;;;15.73;5.50;;;-0.10;99.90;;;;;;5027422;28;20497;-68
2023/01/18 08:36:45;;;;;;;11.93;5.67;;;0.00;99.90;;;;;;5026529;28;21167;-69
2023/01/18 08:39:13;;;;;;;10.80;5.00;;;0.00;99.90;;;;;;5028423;28;20462;-68
2023/01/18 08:41:40;;;;;;;15.97;5.87;;;0.00;99.90;;;;;;5028155;28;20474;-68
2023/01/18 08:44:07;;;;;;;11.60;5.07;;;0.00;99.90;;;;;;5026826;28;20466;-68
2023/01/18 08:46:35;;;;;;;9.97;5.60;;;0.10;99.90;;;;;;5028140;28;20461;-67
2023/01/18 08:49:04;;;;;;;8.93;5.27;;;0.10;99.90;;;;;;5027678;28;20458;-68
2023/01/18 08:51:31;;;;;;;9.63;4.70;;;0.30;99.90;;;;;;5027791;28;20489;-68
2023/01/18 08:53:59;;;;;;;8.40;5.10;;;0.20;99.90;;;;;;5027508;28;20513;-68
2023/01/18 08:56:26;;;;;;;10.13;4.77;;;0.30;99.90;;;;;;5026959;28;20525;-69
2023/01/18 08:58:53;;;;;;;5.50;3.90;;;0.30;99.90;;;;;;5027837;28;21027;-68
2023/01/18 09:01:21;;;;;;;13.93;5.30;;;0.30;99.90;;;;;;5027233;28;20529;-68
2023/01/18 09:03:49;;;;;;;4.93;4.30;;;0.30;99.90;;;;;;5027383;28;20501;-68
2023/01/18 09:06:16;;;;;;;8.57;4.50;;;0.40;99.90;;;;;;5027930;28;21173;-68
2023/01/18 09:08:43;;;;;;;11.83;4.63;;;0.40;99.90;;;;;;5026545;28;20462;-68
2023/01/18 09:11:11;;;;;;;8.23;4.40;;;0.50;99.90;;;;;;5026329;28;20997;-68
2023/01/18 09:13:40;;;;;;;8.50;3.80;;;0.50;99.90;;;;;;5027567;28;20532;-68
2023/01/18 09:16:08;;;;;;;6.17;4.30;;;0.60;99.90;;;;;;5026338;28;20473;-68
2023/01/18 09:18:35;;;;;;;8.27;4.80;;;0.60;99.90;;;;;;5026633;28;20922;-68
2023/01/18 09:21:06;;;;;;;6.00;4.23;;;0.60;99.90;;;;;;5026148;28;20474;-68
2023/01/18 09:23:33;;;;;;;15.43;4.83;;;0.70;99.90;;;;;;5027392;28;20446;-68
2023/01/18 09:26:05;;;;;;;8.50;5.00;;;0.80;99.90;;;;;;5026676;28;20540;-68
2023/01/18 09:28:33;;;;;;;5.83;4.53;;;0.90;99.90;;;;;;5025879;28;20957;-68
2023/01/18 09:31:01;;;;;;;7.40;4.50;;;1.00;99.90;;;;;;5026542;28;20465;-68
2023/01/18 09:33:28;;;;;;;8.60;4.60;;;1.10;99.90;;;;;;5026556;28;20482;-68
2023/01/18 09:35:55;;;;;;;6.93;4.93;;;1.10;99.90;;;;;;5025866;28;20469;-68
2023/01/18 09:38:22;;;;;;;10.10;4.63;;;1.30;99.90;;;;;;5026206;28;20462;-68
2023/01/18 09:40:51;;;;;;;6.57;4.77;;;1.30;99.90;;;;;;5025619;28;20473;-68
2023/01/18 09:43:23;;;;;;;6.20;4.67;;;1.40;99.90;;;;;;5026913;28;20495;-67
2023/01/18 09:45:52;;;;;;;6.93;4.10;;;1.40;99.90;;;;;;5026794;28;20484;-67
2023/01/18 09:48:27;;;;;;;14.93;5.70;;;1.40;99.90;;;;;;5025214;28;20505;-67
2023/01/18 09:50:55;;;;;;;13.50;5.80;;;1.50;99.90;;;;;;5027136;28;20556;-68
2023/01/18 09:53:35;;;;;;;10.47;4.30;;;1.60;99.90;;;;;;5025632;28;20501;-67
2023/01/18 09:56:08;;;;;;;22.20;5.23;;;1.60;99.90;;;;;;5026637;28;20499;-66
2023/01/18 09:58:45;;;;;;;9.07;4.10;;;1.60;99.90;;;;;;5026388;28;20457;-67
2023/01/18 10:01:16;;;;;;;16.30;4.73;;;1.70;99.90;;;;;;5024656;28;20465;-67
2023/01/18 10:03:49;;;;;;;6.43;4.10;;;1.80;99.90;;;;;;5026577;28;20523;-67
2023/01/18 10:06:21;;;;;;;8.57;4.37;;;1.80;99.90;;;;;;5025821;28;20450;-67
2023/01/18 10:08:54;;;;;;;4.33;3.70;;;1.80;99.90;;;;;;5026588;28;21015;-67
2023/01/18 10:11:30;;;;;;;4.90;3.97;;;1.80;99.90;;;;;;5025706;28;20538;-67
2023/01/18 10:14:02;;;;;;;6.37;3.77;;;1.90;99.90;;;;;;5029609;28;20489;-67
2023/01/18 10:16:31;;;;;;;8.33;4.00;;;2.00;99.90;;;;;;5030579;28;20834;-67
2023/01/18 10:18:58;;;;;;;8.30;4.33;;;2.20;99.90;;;;;;5029924;28;20868;-67
2023/01/18 10:21:34;;;;;;;12.13;4.20;;;2.30;99.90;;;;;;5029450;28;20555;-67
2023/01/18 10:24:18;;;;;;;5.93;3.60;;;2.50;99.90;;;;;;5029859;28;20503;-67
2023/01/18 10:26:48;;;;;;;8.47;4.10;;;2.60;99.90;;;;;;5029256;28;20465;-67
2023/01/18 10:29:20;;;;;;;7.40;4.50;;;2.80;99.90;;;;;;5029384;28;20458;-67
2023/01/18 10:31:56;;;;;;;6.23;4.20;;;2.80;99.90;;;;;;5027971;28;20547;-67
2023/01/18 10:34:31;;;;;;;10.83;4.27;;;2.90;99.90;;;;;;5028336;28;20488;-67
2023/01/18 10:37:05;;;;;;;23.73;5.10;;;3.00;99.90;;;;;;5029261;28;20811;-67
2023/01/18 10:39:36;;;;;;;9.40;5.30;;;3.00;99.90;;;;;;5030137;28;20462;-67
2023/01/18 10:42:05;;;;;;;6.87;4.13;;;3.00;99.90;;;;;;5029615;28;20473;-67
2023/01/18 10:44:31;;;;;;;17.57;5.73;;;3.10;99.90;;;;;;5029299;28;20454;-67
2023/01/18 10:47:01;;;;;;;9.40;5.80;;;3.10;99.90;;;;;;5028786;28;20449;-68
2023/01/18 10:49:36;;;;;;;11.40;5.87;;;3.20;99.90;;;;;;5029952;28;20457;-67
2023/01/18 10:52:21;;;;;;;13.73;6.20;;;3.20;99.90;;;;;;5028027;28;20503;-69
2023/01/18 10:54:54;;;;;;;13.20;6.00;;;3.30;99.90;;;;;;5030383;28;20547;-67
2023/01/18 10:57:26;;;;;;;11.77;6.67;;;3.30;99.90;;;;;;5028193;28;20826;-67
2023/01/18 10:59:53;;;;;;;13.23;6.93;;;3.30;99.90;;;;;;5030042;28;20457;-67
2023/01/18 11:02:26;;;;;;;22.13;7.50;;;3.30;99.90;;;;;;5028972;28;20477;-67
2023/01/18 11:04:56;;;;;;;14.70;6.93;;;3.30;99.90;;;;;;5028114;28;20446;-67
2023/01/18 11:07:27;;;;;;;12.23;7.00;;;3.30;99.90;;;;;;5028914;28;21746;-67
2023/01/18 11:09:55;;;;;;;14.57;8.00;;;3.30;99.90;;;;;;5027480;28;20504;-68
2023/01/18 11:12:40;;;;;;;18.23;6.97;;;3.20;99.90;;;;;;5028054;28;20504;-67
2023/01/18 11:15:27;;;;;;;19.77;8.23;;;3.20;99.90;;;;;;5028435;28;20517;-67
2023/01/18 11:18:10;;;;;;;16.50;8.13;;;3.30;99.90;;;;;;5028563;28;20488;-68
2023/01/18 11:20:44;;;;;;;17.53;7.00;;;3.60;99.90;;;;;;5029140;28;20488;-67
2023/01/18 11:23:20;;;;;;;13.43;7.80;;;3.80;99.90;;;;;;5028046;28;20966;-67
2023/01/18 11:25:54;;;;;;;16.13;6.80;;;4.10;99.90;;;;;;5029510;28;21025;-67
2023/01/18 11:28:25;;;;;;;16.30;7.20;;;4.40;99.90;;;;;;5027810;28;20547;-67
2023/01/18 11:30:55;;;;;;;9.83;6.40;;;4.50;99.90;;;;;;5029213;28;20848;-67
2023/01/18 11:33:26;;;;;;;17.30;7.20;;;4.60;99.90;;;;;;5029194;28;22122;-68
2023/01/18 11:35:54;;;;;;;17.70;7.23;;;4.60;99.90;;;;;;5028019;28;20458;-68
2023/01/18 11:38:26;;;;;;;14.73;8.00;;;4.60;99.90;;;;;;5028329;28;20962;-68
2023/01/18 11:41:05;;;;;;;15.77;6.23;;;4.70;99.90;;;;;;5028198;28;21371;-68
2023/01/18 11:43:35;;;;;;;13.90;7.23;;;4.90;99.90;;;;;;5028709;28;20519;-68
2023/01/18 11:46:13;;;;;;;14.37;7.13;;;5.10;99.90;;;;;;5029217;28;20469;-69
2023/01/18 11:48:48;;;;;;;10.97;6.57;;;5.10;99.90;;;;;;5027676;28;20462;-68
2023/01/18 11:51:21;;;;;;;14.43;6.57;;;5.10;99.90;;;;;;5027775;28;20477;-68
2023/01/18 11:53:58;;;;;;;12.80;6.77;;;5.10;99.90;;;;;;5028321;28;20568;-69
2023/01/18 11:56:32;;;;;;;8.57;6.60;;;5.20;99.90;;;;;;5027635;28;20461;-69
2023/01/18 11:59:00;;;;;;;15.70;6.70;;;5.10;99.90;;;;;;5027953;28;20466;-69
2023/01/18 12:02:17;;;;;;;12.67;6.20;;;5.10;99.90;;;;;;5026785;28;20477;-68
2023/01/18 12:05:09;;;;;;;13.27;6.00;;;5.20;99.90;;;;;;5028917;28;20454;-69
2023/01/18 12:07:49;;;;;;;12.37;6.20;;;5.00;99.90;;;;;;5027942;28;20454;-69
2023/01/18 12:10:21;;;;;;;10.57;5.40;;;5.00;99.90;;;;;;5027385;28;21197;-69
2023/01/18 12:13:05;;;;;;;17.27;6.40;;;4.90;99.90;;;;;;5028011;28;20987;-69
2023/01/18 12:15:53;;;;;;;11.00;6.00;;;4.80;99.90;;;;;;5026010;28;20490;-69
2023/01/18 12:18:40;;;;;;;8.83;5.17;;;4.70;99.90;;;;;;5028159;28;20557;-69
2023/01/18 12:21:13;;;;;;;8.90;5.80;;;4.80;99.90;;;;;;5026765;28;20473;-69
2023/01/18 12:24:04;;;;;;;20.63;6.53;;;4.70;99.90;;;;;;5027755;28;20508;-69
2023/01/18 12:26:42;;;;;;;11.50;5.90;;;4.60;99.90;;;;;;5026536;28;21265;-69
2023/01/18 12:29:33;;;;;;;9.57;6.60;;;4.50;99.90;;;;;;5027221;28;20802;-69
2023/01/18 12:32:09;;;;;;;14.80;6.47;;;4.30;99.90;;;;;;5027113;28;20485;-70
2023/01/18 12:34:41;;;;;;;19.97;6.87;;;4.20;99.90;;;;;;5027170;28;20495;-70
2023/01/18 12:37:24;;;;;;;14.45;6.43;;;4.00;99.90;;;;;;5026426;28;20449;-70
2023/01/18 12:40:03;;;;;;;9.83;6.70;;;3.90;99.90;;;;;;5026970;28;20269;-71
2023/01/18 12:42:44;;;;;;;10.05;6.60;;;3.90;99.90;;;;;;5026360;28;20449;-71
2023/01/18 12:45:26;;;;;;;14.25;6.88;;;3.90;99.90;;;;;;5025896;28;20442;-70
2023/01/18 12:48:01;;;;;;;13.43;6.83;;;4.00;99.90;;;;;;5026054;28;20211;-71
2023/01/18 12:50:31;;;;;;;11.00;7.13;;;4.10;99.90;;;;;;5026708;28;20539;-69
2023/01/18 12:53:04;;;;;;;15.80;7.20;;;4.30;99.90;;;;;;5025939;28;20539;-71
2023/01/18 12:55:34;;;;;;;20.43;11.27;;;4.40;99.90;;;;;;5027446;28;20478;-71
2023/01/18 12:58:02;;;;;;;74.63;40.33;;;4.40;99.90;;;;;;5027153;28;20462;-71
2023/01/18 13:00:34;;;;;;;150.00;52.77;;;4.50;99.90;;;;;;5026854;28;20486;-70
2023/01/18 13:03:08;;;;;;;36.33;14.30;;;4.60;99.90;;;;;;5027808;28;20499;-69
2023/01/18 13:05:47;;;;;;;29.37;12.10;;;4.50;99.90;;;;;;5026245;28;20453;-69
2023/01/18 13:08:23;;;;;;;21.23;8.10;;;4.50;99.90;;;;;;5027390;28;20515;-70
2023/01/18 13:10:51;;;;;;;12.50;7.83;;;4.50;99.90;;;;;;5025169;28;20908;-69
2023/01/18 13:13:23;;;;;;;15.87;7.97;;;4.50;99.90;;;;;;5026165;28;20450;-69
2023/01/18 13:15:57;;;;;;;16.60;8.17;;;4.60;99.90;;;;;;5027027;28;20540;-68
2023/01/18 13:18:27;;;;;;;86.53;40.08;;;4.70;99.90;;;;;;5026395;28;20457;-68
2023/01/18 13:21:06;;;;;;;14.47;7.97;;;4.90;99.90;;;;;;5027028;28;20773;-70
2023/01/18 13:23:44;;;;;;;19.03;8.50;;;5.10;99.90;;;;;;5026756;28;20511;-70
2023/01/18 13:26:22;;;;;;;16.40;8.50;;;5.00;99.90;;;;;;5026368;28;20462;-71
2023/01/18 13:29:05;;;;;;;9.03;7.60;;;5.10;99.90;;;;;;5026464;28;21173;-70
2023/01/18 13:31:32;;;;;;;16.80;8.03;;;5.10;99.90;;;;;;5025844;28;20523;-70